sensor_id;sensor_type;location;lat;lon;timestamp;pressure;altitude;pressure_sealevel;temperature;humidity
7962;BME280;4026;43.652;24.906;2023-04-25T00:00:15;98325.59;;;12.21;100.00
7962;BME280;4026;43.652;24.906;2023-04-25T00:02:42;98330.72;;;12.21;100.00
7962;BME280;4026;43.652;24.906;2023-04-25T00:05:09;98324.16;;;12.19;100.00
7962;BME280;4026;43.652;24.906;2023-04-25T00:07:36;98319.94;;;12.18;100.00
7962;BME280;4026;43.652;24.906;2023-04-25T00:10:06;98310.50;;;12.18;100.00
7962;BME280;4026;43.652;24.906;2023-04-25T00:12:33;98306.75;;;12.13;100.00
7962;BME280;4026;43.652;24.906;2023-04-25T00:15:01;98312.94;;;12.20;100.00
7962;BME280;4026;43.652;24.906;2023-04-25T00:17:28;98305.44;;;11.99;100.00
7962;BME280;4026;43.652;24.906;2023-04-25T00:19:55;98304.66;;;11.98;100.00
7962;BME280;4026;43.652;24.906;2023-04-25T00:22:23;98298.97;;;12.05;100.00
7962;BME280;4026;43.652;24.906;2023-04-25T00:24:50;98295.16;;;12.09;100.00
7962;BME280;4026;43.652;24.906;2023-04-25T00:27:20;98297.38;;;11.94;100.00
7962;BME280;4026;43.652;24.906;2023-04-25T00:29:46;98291.16;;;11.96;100.00
7962;BME280;4026;43.652;24.906;2023-04-25T00:32:13;98281.03;;;12.05;100.00
7962;BME280;4026;43.652;24.906;2023-04-25T00:34:40;98273.91;;;11.98;100.00
7962;BME280;4026;43.652;24.906;2023-04-25T00:37:07;98272.84;;;11.91;100.00
7962;BME280;4026;43.652;24.906;2023-04-25T00:39:34;98267.72;;;11.91;100.00
7962;BME280;4026;43.652;24.906;2023-04-25T00:42:01;98268.66;;;11.90;100.00
7962;BME280;4026;43.652;24.906;2023-04-25T00:44:30;98257.75;;;11.88;100.00
7962;BME280;4026;43.652;24.906;2023-04-25T00:46:59;98254.63;;;11.94;100.00
7962;BME280;4026;43.652;24.906;2023-04-25T00:49:26;98250.38;;;12.13;100.00
7962;BME280;4026;43.652;24.906;2023-04-25T00:51:54;98238.91;;;12.17;100.00
7962;BME280;4026;43.652;24.906;2023-04-25T00:54:21;98237.09;;;12.27;100.00
7962;BME280;4026;43.652;24.906;2023-04-25T00:56:48;98228.19;;;12.31;100.00
7962;BME280;4026;43.652;24.906;2023-04-25T00:59:15;98223.47;;;12.27;100.00
7962;BME280;4026;43.652;24.906;2023-04-25T01:01:45;98222.53;;;12.28;100.00
7962;BME280;4026;43.652;24.906;2023-04-25T01:04:12;98228.19;;;12.31;100.00
7962;BME280;4026;43.652;24.906;2023-04-25T01:06:42;98216.31;;;12.30;100.00
7962;BME280;4026;43.652;24.906;2023-04-25T01:09:09;98224.66;;;12.32;100.00
7962;BME280;4026;43.652;24.906;2023-04-25T01:11:36;98220.59;;;12.39;100.00
7962;BME280;4026;43.652;24.906;2023-04-25T01:14:05;98224.81;;;12.31;100.00
7962;BME280;4026;43.652;24.906;2023-04-25T01:16:32;98229.22;;;12.38;100.00
7962;BME280;4026;43.652;24.906;2023-04-25T01:19:01;98226.22;;;12.43;100.00
7962;BME280;4026;43.652;24.906;2023-04-25T01:21:29;98226.44;;;12.50;100.00
7962;BME280;4026;43.652;24.906;2023-04-25T01:23:56;98227.50;;;12.57;100.00
7962;BME280;4026;43.652;24.906;2023-04-25T01:26:23;98235.91;;;12.49;100.00
7962;BME280;4026;43.652;24.906;2023-04-25T01:28:51;98230.91;;;12.48;100.00
7962;BME280;4026;43.652;24.906;2023-04-25T01:31:19;98248.84;;;12.48;100.00
7962;BME280;4026;43.652;24.906;2023-04-25T01:33:47;98246.22;;;12.39;100.00
7962;BME280;4026;43.652;24.906;2023-04-25T01:36:14;98243.56;;;12.31;100.00
7962;BME280;4026;43.652;24.906;2023-04-25T01:38:43;98242.19;;;12.37;100.00
7962;BME280;4026;43.652;24.906;2023-04-25T01:41:11;98240.03;;;12.32;100.00
7962;BME280;4026;43.652;24.906;2023-04-25T01:43:38;98226.84;;;12.27;100.00
7962;BME280;4026;43.652;24.906;2023-04-25T01:46:06;98227.00;;;12.26;100.00
7962;BME280;4026;43.652;24.906;2023-04-25T01:48:33;98227.66;;;12.28;100.00
7962;BME280;4026;43.652;24.906;2023-04-25T01:51:00;98217.66;;;12.34;100.00
7962;BME280;4026;43.652;24.906;2023-04-25T01:53:26;98218.72;;;12.32;100.00
7962;BME280;4026;43.652;24.906;2023-04-25T01:55:55;98217.66;;;12.34;100.00
7962;BME280;4026;43.652;24.906;2023-04-25T01:58:21;98201.41;;;12.43;100.00
7962;BME280;4026;43.652;24.906;2023-04-25T02:00:48;98200.81;;;12.50;100.00
7962;BME280;4026;43.652;24.906;2023-04-25T02:03:15;98194.22;;;12.47;100.00
7962;BME280;4026;43.652;24.906;2023-04-25T02:05:42;98197.66;;;12.56;100.00
7962;BME280;4026;43.652;24.906;2023-04-25T02:08:09;98183.56;;;12.24;100.00
7962;BME280;4026;43.652;24.906;2023-04-25T02:10:36;98173.97;;;12.26;100.00
7962;BME280;4026;43.652;24.906;2023-04-25T02:13:04;98166.41;;;12.24;100.00
7962;BME280;4026;43.652;24.906;2023-04-25T02:15:31;98170.75;;;12.24;100.00
7962;BME280;4026;43.652;24.906;2023-04-25T02:17:58;98176.44;;;12.18;100.00
7962;BME280;4026;43.652;24.906;2023-04-25T02:20:27;98177.03;;;12.12;100.00
7962;BME280;4026;43.652;24.906;2023-04-25T02:22:54;98174.56;;;12.20;100.00
7962;BME280;4026;43.652;24.906;2023-04-25T02:25:21;98168.72;;;12.28;100.00
7962;BME280;4026;43.652;24.906;2023-04-25T02:27:48;98178.53;;;12.32;100.00
7962;BME280;4026;43.652;24.906;2023-04-25T02:30:18;98172.72;;;12.30;100.00
7962;BME280;4026;43.652;24.906;2023-04-25T02:32:45;98178.25;;;12.35;100.00
7962;BME280;4026;43.652;24.906;2023-04-25T02:35:12;98183.44;;;12.26;100.00
7962;BME280;4026;43.652;24.906;2023-04-25T02:37:39;98171.28;;;12.28;100.00
7962;BME280;4026;43.652;24.906;2023-04-25T02:40:07;98174.66;;;12.46;100.00
7962;BME280;4026;43.652;24.906;2023-04-25T02:42:34;98176.78;;;12.51;100.00
7962;BME280;4026;43.652;24.906;2023-04-25T02:45:02;98173.88;;;12.45;100.00
7962;BME280;4026;43.652;24.906;2023-04-25T02:47:30;98173.31;;;12.42;100.00
7962;BME280;4026;43.652;24.906;2023-04-25T02:49:57;98170.72;;;12.34;100.00
7962;BME280;4026;43.652;24.906;2023-04-25T02:52:24;98170.63;;;12.43;100.00
7962;BME280;4026;43.652;24.906;2023-04-25T02:54:51;98166.25;;;12.54;100.00
7962;BME280;4026;43.652;24.906;2023-04-25T02:57:18;98162.81;;;12.63;100.00
7962;BME280;4026;43.652;24.906;2023-04-25T02:59:44;98174.75;;;12.72;100.00
7962;BME280;4026;43.652;24.906;2023-04-25T03:02:11;98180.47;;;12.66;100.00
7962;BME280;4026;43.652;24.906;2023-04-25T03:04:39;98183.97;;;12.65;100.00
7962;BME280;4026;43.652;24.906;2023-04-25T03:07:07;98180.47;;;12.66;100.00
7962;BME280;4026;43.652;24.906;2023-04-25T03:09:33;98182.00;;;12.59;100.00
7962;BME280;4026;43.652;24.906;2023-04-25T03:12:00;98175.41;;;12.56;100.00
7962;BME280;4026;43.652;24.906;2023-04-25T03:14:27;98174.84;;;12.62;100.00
7962;BME280;4026;43.652;24.906;2023-04-25T03:16:54;98183.16;;;12.64;100.00
7962;BME280;4026;43.652;24.906;2023-04-25T03:19:21;98185.81;;;12.73;100.00
7962;BME280;4026;43.652;24.906;2023-04-25T03:21:49;98180.00;;;12.88;100.00
7962;BME280;4026;43.652;24.906;2023-04-25T03:24:16;98188.38;;;12.90;100.00
7962;BME280;4026;43.652;24.906;2023-04-25T03:26:43;98190.94;;;12.90;100.00
7962;BME280;4026;43.652;24.906;2023-04-25T03:29:09;98180.38;;;12.94;100.00
7962;BME280;4026;43.652;24.906;2023-04-25T03:31:36;98182.16;;;12.93;100.00
7962;BME280;4026;43.652;24.906;2023-04-25T03:34:03;98184.56;;;12.95;100.00
7962;BME280;4026;43.652;24.906;2023-04-25T03:36:30;98182.53;;;12.80;100.00
7962;BME280;4026;43.652;24.906;2023-04-25T03:38:59;98186.47;;;12.93;100.00
7962;BME280;4026;43.652;24.906;2023-04-25T03:41:26;98187.19;;;12.67;100.00
7962;BME280;4026;43.652;24.906;2023-04-25T03:43:53;98190.81;;;12.74;100.00
7962;BME280;4026;43.652;24.906;2023-04-25T03:46:20;98189.84;;;12.75;100.00
7962;BME280;4026;43.652;24.906;2023-04-25T03:48:46;98179.88;;;12.72;100.00
7962;BME280;4026;43.652;24.906;2023-04-25T03:51:13;98183.75;;;12.76;100.00
7962;BME280;4026;43.652;24.906;2023-04-25T03:53:41;98189.25;;;12.81;100.00
7962;BME280;4026;43.652;24.906;2023-04-25T03:56:09;98188.88;;;12.76;100.00
7962;BME280;4026;43.652;24.906;2023-04-25T03:58:36;98184.13;;;12.81;100.00
7962;BME280;4026;43.652;24.906;2023-04-25T04:01:02;98183.91;;;12.75;100.00
7962;BME280;4026;43.652;24.906;2023-04-25T04:03:32;98179.81;;;12.64;100.00
7962;BME280;4026;43.652;24.906;2023-04-25T04:05:59;98179.97;;;12.62;100.00
7962;BME280;4026;43.652;24.906;2023-04-25T04:08:26;98194.69;;;12.78;100.00
7962;BME280;4026;43.652;24.906;2023-04-25T04:10:53;98188.38;;;12.90;100.00
7962;BME280;4026;43.652;24.906;2023-04-25T04:13:21;98197.44;;;13.03;100.00
7962;BME280;4026;43.652;24.906;2023-04-25T04:15:48;98196.22;;;13.07;100.00
7962;BME280;4026;43.652;24.906;2023-04-25T04:18:15;98202.72;;;13.19;100.00
7962;BME280;4026;43.652;24.906;2023-04-25T04:20:41;98202.94;;;13.08;100.00
7962;BME280;4026;43.652;24.906;2023-04-25T04:23:08;98201.28;;;12.99;100.00
7962;BME280;4026;43.652;24.906;2023-04-25T04:25:36;98206.59;;;13.05;100.00
7962;BME280;4026;43.652;24.906;2023-04-25T04:28:03;98205.50;;;13.08;100.00
7962;BME280;4026;43.652;24.906;2023-04-25T04:30:31;98199.06;;;13.04;100.00
7962;BME280;4026;43.652;24.906;2023-04-25T04:33:01;98197.44;;;13.03;100.00
7962;BME280;4026;43.652;24.906;2023-04-25T04:35:29;98212.53;;;13.06;100.00
7962;BME280;4026;43.652;24.906;2023-04-25T04:37:55;98203.41;;;13.03;100.00
7962;BME280;4026;43.652;24.906;2023-04-25T04:40:22;98206.84;;;13.12;100.00
7962;BME280;4026;43.652;24.906;2023-04-25T04:42:49;98207.84;;;13.19;100.00
7962;BME280;4026;43.652;24.906;2023-04-25T04:45:17;98219.06;;;12.82;100.00
7962;BME280;4026;43.652;24.906;2023-04-25T04:47:45;98221.22;;;13.05;100.00
7962;BME280;4026;43.652;24.906;2023-04-25T04:50:13;98223.09;;;13.03;100.00
7962;BME280;4026;43.652;24.906;2023-04-25T04:52:41;98226.72;;;12.92;100.00
7962;BME280;4026;43.652;24.906;2023-04-25T04:55:08;98224.94;;;13.10;100.00
7962;BME280;4026;43.652;24.906;2023-04-25T04:57:35;98225.81;;;13.19;100.00
7962;BME280;4026;43.652;24.906;2023-04-25T05:00:04;98225.63;;;13.30;100.00
7962;BME280;4026;43.652;24.906;2023-04-25T05:02:36;98224.50;;;13.15;100.00
7962;BME280;4026;43.652;24.906;2023-04-25T05:05:04;98231.97;;;13.26;100.00
7962;BME280;4026;43.652;24.906;2023-04-25T05:07:31;98221.34;;;13.21;100.00
7962;BME280;4026;43.652;24.906;2023-04-25T05:09:58;98221.47;;;13.38;100.00
7962;BME280;4026;43.652;24.906;2023-04-25T05:12:25;98226.31;;;13.41;100.00
7962;BME280;4026;43.652;24.906;2023-04-25T05:14:52;98227.66;;;13.45;100.00
7962;BME280;4026;43.652;24.906;2023-04-25T05:17:18;98222.88;;;13.50;100.00
7962;BME280;4026;43.652;24.906;2023-04-25T05:19:45;98227.03;;;13.51;100.00
7962;BME280;4026;43.652;24.906;2023-04-25T05:22:13;98222.97;;;13.66;100.00
7962;BME280;4026;43.652;24.906;2023-04-25T05:24:40;98221.84;;;13.69;100.00
7962;BME280;4026;43.652;24.906;2023-04-25T05:27:07;98224.91;;;13.72;100.00
7962;BME280;4026;43.652;24.906;2023-04-25T05:29:34;98219.78;;;13.72;100.00
7962;BME280;4026;43.652;24.906;2023-04-25T05:32:00;98221.78;;;13.87;100.00
7962;BME280;4026;43.652;24.906;2023-04-25T05:34:27;98220.19;;;13.86;100.00
7962;BME280;4026;43.652;24.906;2023-04-25T05:36:54;98216.00;;;13.85;100.00
7962;BME280;4026;43.652;24.906;2023-04-25T05:39:22;98219.25;;;13.95;100.00
7962;BME280;4026;43.652;24.906;2023-04-25T05:41:49;98220.22;;;13.94;100.00
7962;BME280;4026;43.652;24.906;2023-04-25T05:44:16;98216.66;;;13.87;100.00
7962;BME280;4026;43.652;24.906;2023-04-25T05:46:43;98226.66;;;13.98;100.00
7962;BME280;4026;43.652;24.906;2023-04-25T05:49:09;98221.88;;;14.03;100.00
7962;BME280;4026;43.652;24.906;2023-04-25T05:51:36;98228.31;;;14.07;100.00
7962;BME280;4026;43.652;24.906;2023-04-25T05:54:03;98228.91;;;14.01;100.00
7962;BME280;4026;43.652;24.906;2023-04-25T05:56:31;98235.25;;;14.15;100.00
7962;BME280;4026;43.652;24.906;2023-04-25T05:58:58;98232.53;;;14.16;100.00
7962;BME280;4026;43.652;24.906;2023-04-25T06:01:25;98231.94;;;14.22;100.00
7962;BME280;4026;43.652;24.906;2023-04-25T06:03:52;98232.22;;;14.19;100.00
7962;BME280;4026;43.652;24.906;2023-04-25T06:06:18;98233.88;;;14.37;100.00
7962;BME280;4026;43.652;24.906;2023-04-25T06:08:45;98229.81;;;14.60;100.00
7962;BME280;4026;43.652;24.906;2023-04-25T06:11:12;98235.94;;;14.76;100.00
7962;BME280;4026;43.652;24.906;2023-04-25T06:13:40;98236.59;;;14.78;100.00
7962;BME280;4026;43.652;24.906;2023-04-25T06:16:07;98230.19;;;15.06;100.00
7962;BME280;4026;43.652;24.906;2023-04-25T06:18:34;98228.59;;;15.22;100.00
7962;BME280;4026;43.652;24.906;2023-04-25T06:21:01;98229.22;;;15.32;100.00
7962;BME280;4026;43.652;24.906;2023-04-25T06:23:28;98231.31;;;15.36;100.00
7962;BME280;4026;43.652;24.906;2023-04-25T06:25:54;98229.53;;;15.45;100.00
7962;BME280;4026;43.652;24.906;2023-04-25T06:28:21;98237.88;;;15.47;100.00
7962;BME280;4026;43.652;24.906;2023-04-25T06:30:51;98241.44;;;15.62;100.00
7962;BME280;4026;43.652;24.906;2023-04-25T06:33:17;98239.47;;;15.81;100.00
7962;BME280;4026;43.652;24.906;2023-04-25T06:35:45;98252.00;;;16.09;100.00
7962;BME280;4026;43.652;24.906;2023-04-25T06:38:12;98247.81;;;15.99;100.00
7962;BME280;4026;43.652;24.906;2023-04-25T06:40:39;98246.03;;;16.39;100.00
7962;BME280;4026;43.652;24.906;2023-04-25T06:43:05;98243.22;;;16.88;100.00
7962;BME280;4026;43.652;24.906;2023-04-25T06:45:32;98240.75;;;17.56;100.00
7962;BME280;4026;43.652;24.906;2023-04-25T06:48:00;98241.25;;;17.89;100.00
7962;BME280;4026;43.652;24.906;2023-04-25T06:50:27;98248.69;;;17.69;100.00
7962;BME280;4026;43.652;24.906;2023-04-25T06:52:54;98253.69;;;17.71;100.00
7962;BME280;4026;43.652;24.906;2023-04-25T06:55:21;98242.84;;;18.20;100.00
7962;BME280;4026;43.652;24.906;2023-04-25T06:57:48;98254.88;;;18.78;100.00
7962;BME280;4026;43.652;24.906;2023-04-25T07:00:15;98243.19;;;18.83;100.00
7962;BME280;4026;43.652;24.906;2023-04-25T07:02:42;98242.66;;;19.15;95.65
7962;BME280;4026;43.652;24.906;2023-04-25T07:05:10;98242.94;;;19.77;95.96
7962;BME280;4026;43.652;24.906;2023-04-25T07:07:37;98250.53;;;20.13;89.78
7962;BME280;4026;43.652;24.906;2023-04-25T07:10:04;98253.22;;;19.92;88.17
7962;BME280;4026;43.652;24.906;2023-04-25T07:12:31;98241.22;;;20.32;87.91
7962;BME280;4026;43.652;24.906;2023-04-25T07:14:58;98237.22;;;20.84;88.40
7962;BME280;4026;43.652;24.906;2023-04-25T07:17:31;98236.63;;;21.22;79.88
7962;BME280;4026;43.652;24.906;2023-04-25T07:19:58;98244.06;;;21.45;76.17
7962;BME280;4026;43.652;24.906;2023-04-25T07:22:26;98241.25;;;21.33;73.10
7962;BME280;4026;43.652;24.906;2023-04-25T07:24:53;98242.84;;;21.34;74.48
7962;BME280;4026;43.652;24.906;2023-04-25T07:27:20;98239.66;;;21.59;76.39
7962;BME280;4026;43.652;24.906;2023-04-25T07:29:46;98244.84;;;21.45;67.18
7962;BME280;4026;43.652;24.906;2023-04-25T07:32:13;98237.63;;;21.74;66.41
7962;BME280;4026;43.652;24.906;2023-04-25T07:34:40;98243.84;;;21.60;68.97
7962;BME280;4026;43.652;24.906;2023-04-25T07:37:07;98239.44;;;21.60;68.88
7962;BME280;4026;43.652;24.906;2023-04-25T07:39:35;98242.44;;;21.64;68.87
7962;BME280;4026;43.652;24.906;2023-04-25T07:42:03;98240.00;;;21.82;69.11
7962;BME280;4026;43.652;24.906;2023-04-25T07:44:31;98242.81;;;21.81;70.04
7962;BME280;4026;43.652;24.906;2023-04-25T07:47:04;98249.94;;;22.25;62.82
7962;BME280;4026;43.652;24.906;2023-04-25T07:49:30;98245.03;;;21.11;63.70
7962;BME280;4026;43.652;24.906;2023-04-25T07:51:57;98238.78;;;20.78;65.73
7962;BME280;4026;43.652;24.906;2023-04-25T07:54:24;98236.44;;;21.17;65.21
7962;BME280;4026;43.652;24.906;2023-04-25T07:56:52;98238.81;;;21.78;61.50
7962;BME280;4026;43.652;24.906;2023-04-25T07:59:19;98231.63;;;21.67;61.79
7962;BME280;4026;43.652;24.906;2023-04-25T08:01:47;98238.38;;;21.95;61.08
7962;BME280;4026;43.652;24.906;2023-04-25T08:04:13;98238.34;;;22.08;60.63
7962;BME280;4026;43.652;24.906;2023-04-25T08:06:40;98238.06;;;21.44;61.08
7962;BME280;4026;43.652;24.906;2023-04-25T08:09:07;98244.03;;;20.98;63.34
7962;BME280;4026;43.652;24.906;2023-04-25T08:11:34;98240.03;;;21.36;67.54
7962;BME280;4026;43.652;24.906;2023-04-25T08:14:03;98245.84;;;21.58;62.61
7962;BME280;4026;43.652;24.906;2023-04-25T08:16:30;98248.03;;;21.67;63.18
7962;BME280;4026;43.652;24.906;2023-04-25T08:18:57;98240.41;;;21.86;65.28
7962;BME280;4026;43.652;24.906;2023-04-25T08:21:24;98244.81;;;21.85;67.37
7962;BME280;4026;43.652;24.906;2023-04-25T08:23:51;98252.13;;;22.28;62.63
7962;BME280;4026;43.652;24.906;2023-04-25T08:26:17;98248.78;;;21.95;64.28
7962;BME280;4026;43.652;24.906;2023-04-25T08:28:46;98249.84;;;21.40;66.35
7962;BME280;4026;43.652;24.906;2023-04-25T08:31:14;98252.81;;;21.11;66.49
7962;BME280;4026;43.652;24.906;2023-04-25T08:33:41;98256.34;;;20.70;70.35
7962;BME280;4026;43.652;24.906;2023-04-25T08:36:08;98258.50;;;20.11;74.19
7962;BME280;4026;43.652;24.906;2023-04-25T08:38:35;98260.97;;;20.26;75.84
7962;BME280;4026;43.652;24.906;2023-04-25T08:41:02;98254.19;;;20.25;75.89
7962;BME280;4026;43.652;24.906;2023-04-25T08:43:29;98246.53;;;20.10;75.82
7962;BME280;4026;43.652;24.906;2023-04-25T08:45:59;98251.94;;;20.16;76.13
7962;BME280;4026;43.652;24.906;2023-04-25T08:48:28;98246.00;;;19.87;74.19
7962;BME280;4026;43.652;24.906;2023-04-25T08:50:56;98240.56;;;19.54;75.80
7962;BME280;4026;43.652;24.906;2023-04-25T08:53:26;98241.88;;;19.43;76.44
7962;BME280;4026;43.652;24.906;2023-04-25T08:55:54;98240.13;;;19.22;75.67
7962;BME280;4026;43.652;24.906;2023-04-25T08:58:22;98246.47;;;19.41;77.37
7962;BME280;4026;43.652;24.906;2023-04-25T09:00:50;98246.66;;;19.39;79.55
7962;BME280;4026;43.652;24.906;2023-04-25T09:03:18;98242.22;;;19.61;79.28
7962;BME280;4026;43.652;24.906;2023-04-25T09:05:46;98235.38;;;19.54;79.34
7962;BME280;4026;43.652;24.906;2023-04-25T09:08:13;98238.50;;;19.99;75.77
7962;BME280;4026;43.652;24.906;2023-04-25T09:10:40;98240.41;;;20.99;71.72
7962;BME280;4026;43.652;24.906;2023-04-25T09:13:07;98233.03;;;21.23;74.36
7962;BME280;4026;43.652;24.906;2023-04-25T09:15:47;98247.94;;;20.54;63.61
7962;BME280;4026;43.652;24.906;2023-04-25T09:18:22;98241.22;;;19.34;65.45
7962;BME280;4026;43.652;24.906;2023-04-25T09:20:51;98237.94;;;18.97;75.19
7962;BME280;4026;43.652;24.906;2023-04-25T09:23:19;98252.47;;;17.81;86.53
7962;BME280;4026;43.652;24.906;2023-04-25T09:25:48;98243.59;;;17.61;92.19
7962;BME280;4026;43.652;24.906;2023-04-25T09:28:15;98232.16;;;17.40;95.13
7962;BME280;4026;43.652;24.906;2023-04-25T09:30:42;98243.31;;;17.56;100.00
7962;BME280;4026;43.652;24.906;2023-04-25T09:33:10;98241.09;;;17.53;100.00
7962;BME280;4026;43.652;24.906;2023-04-25T09:35:39;98242.09;;;18.26;100.00
7962;BME280;4026;43.652;24.906;2023-04-25T09:38:12;98240.50;;;18.61;100.00
7962;BME280;4026;43.652;24.906;2023-04-25T09:40:40;98243.44;;;18.37;95.27
7962;BME280;4026;43.652;24.906;2023-04-25T09:43:10;98238.38;;;18.28;96.59
7962;BME280;4026;43.652;24.906;2023-04-25T09:45:42;98240.19;;;18.13;96.13
7962;BME280;4026;43.652;24.906;2023-04-25T09:48:11;98246.66;;;18.09;99.37
7962;BME280;4026;43.652;24.906;2023-04-25T09:50:38;98245.00;;;18.01;94.87
7962;BME280;4026;43.652;24.906;2023-04-25T09:53:05;98243.03;;;17.88;96.63
7962;BME280;4026;43.652;24.906;2023-04-25T09:55:34;98237.97;;;17.80;91.86
7962;BME280;4026;43.652;24.906;2023-04-25T09:58:05;98242.78;;;17.83;91.73
7962;BME280;4026;43.652;24.906;2023-04-25T10:00:33;98240.63;;;18.02;94.59
7962;BME280;4026;43.652;24.906;2023-04-25T10:03:01;98241.50;;;18.24;88.40
7962;BME280;4026;43.652;24.906;2023-04-25T10:05:32;98239.91;;;18.08;93.14
7962;BME280;4026;43.652;24.906;2023-04-25T10:08:02;98237.03;;;18.03;88.32
7962;BME280;4026;43.652;24.906;2023-04-25T10:10:30;98238.19;;;17.85;86.88
7962;BME280;4026;43.652;24.906;2023-04-25T10:13:03;98240.44;;;17.88;89.39
7962;BME280;4026;43.652;24.906;2023-04-25T10:15:33;98238.66;;;18.04;90.62
7962;BME280;4026;43.652;24.906;2023-04-25T10:18:00;98232.53;;;18.56;93.62
7962;BME280;4026;43.652;24.906;2023-04-25T10:20:28;98234.41;;;19.27;88.69
7962;BME280;4026;43.652;24.906;2023-04-25T10:22:58;98227.38;;;19.20;84.35
7962;BME280;4026;43.652;24.906;2023-04-25T10:25:30;98226.63;;;19.05;88.66
7962;BME280;4026;43.652;24.906;2023-04-25T10:27:59;98227.81;;;19.03;84.05
7962;BME280;4026;43.652;24.906;2023-04-25T10:30:27;98221.22;;;18.78;84.09
7962;BME280;4026;43.652;24.906;2023-04-25T10:32:55;98223.44;;;18.67;86.51
7962;BME280;4026;43.652;24.906;2023-04-25T10:35:25;98218.41;;;18.44;84.88
7962;BME280;4026;43.652;24.906;2023-04-25T10:38:00;98220.97;;;18.59;82.85
7962;BME280;4026;43.652;24.906;2023-04-25T10:40:29;98218.19;;;18.96;86.09
7962;BME280;4026;43.652;24.906;2023-04-25T10:43:35;98221.59;;;19.75;81.68
7962;BME280;4026;43.652;24.906;2023-04-25T10:46:13;98212.06;;;19.82;78.31
7962;BME280;4026;43.652;24.906;2023-04-25T10:48:45;98208.41;;;19.70;78.65
7962;BME280;4026;43.652;24.906;2023-04-25T10:51:17;98219.44;;;19.57;76.30
7962;BME280;4026;43.652;24.906;2023-04-25T10:53:44;98213.31;;;19.36;71.25
7962;BME280;4026;43.652;24.906;2023-04-25T10:56:11;98210.69;;;19.30;71.44
7962;BME280;4026;43.652;24.906;2023-04-25T10:58:43;98212.88;;;19.26;72.91
7962;BME280;4026;43.652;24.906;2023-04-25T11:01:12;98211.00;;;19.48;70.38
7962;BME280;4026;43.652;24.906;2023-04-25T11:03:41;98209.91;;;19.92;71.80
7962;BME280;4026;43.652;24.906;2023-04-25T11:06:18;98206.53;;;20.46;70.97
7962;BME280;4026;43.652;24.906;2023-04-25T11:08:48;98207.13;;;20.48;66.86
7962;BME280;4026;43.652;24.906;2023-04-25T11:11:16;98196.84;;;21.15;71.36
7962;BME280;4026;43.652;24.906;2023-04-25T11:13:44;98195.13;;;21.93;69.00
7962;BME280;4026;43.652;24.906;2023-04-25T11:16:12;98184.63;;;22.13;60.24
7962;BME280;4026;43.652;24.906;2023-04-25T11:18:41;98188.19;;;22.32;59.34
7962;BME280;4026;43.652;24.906;2023-04-25T11:21:08;98192.78;;;22.30;58.11
7962;BME280;4026;43.652;24.906;2023-04-25T11:23:35;98197.84;;;22.25;56.89
7962;BME280;4026;43.652;24.906;2023-04-25T11:26:02;98199.94;;;21.97;55.50
7962;BME280;4026;43.652;24.906;2023-04-25T11:28:29;98203.09;;;21.99;58.34
7962;BME280;4026;43.652;24.906;2023-04-25T11:30:56;98198.78;;;21.79;55.49
7962;BME280;4026;43.652;24.906;2023-04-25T11:33:25;98197.63;;;21.22;56.42
7962;BME280;4026;43.652;24.906;2023-04-25T11:35:53;98205.22;;;20.90;59.27
7962;BME280;4026;43.652;24.906;2023-04-25T11:38:21;98204.31;;;20.43;60.42
7962;BME280;4026;43.652;24.906;2023-04-25T11:40:50;98210.69;;;20.34;60.88
7962;BME280;4026;43.652;24.906;2023-04-25T11:43:17;98212.94;;;19.96;61.84
7962;BME280;4026;43.652;24.906;2023-04-25T11:45:47;98210.69;;;19.58;66.83
7962;BME280;4026;43.652;24.906;2023-04-25T11:48:14;98203.47;;;19.53;68.41
7962;BME280;4026;43.652;24.906;2023-04-25T11:50:42;98200.41;;;19.71;66.08
7962;BME280;4026;43.652;24.906;2023-04-25T11:53:09;98196.16;;;19.29;65.59
7962;BME280;4026;43.652;24.906;2023-04-25T11:55:37;98187.03;;;19.11;66.58
7962;BME280;4026;43.652;24.906;2023-04-25T11:58:04;98181.84;;;19.11;68.91
7962;BME280;4026;43.652;24.906;2023-04-25T12:00:31;98179.84;;;19.13;69.23
7962;BME280;4026;43.652;24.906;2023-04-25T12:02:58;98184.78;;;19.30;71.87
7962;BME280;4026;43.652;24.906;2023-04-25T12:05:27;98178.84;;;19.36;70.98
7962;BME280;4026;43.652;24.906;2023-04-25T12:07:55;98176.25;;;19.36;70.78
7962;BME280;4026;43.652;24.906;2023-04-25T12:10:24;98174.72;;;19.76;72.54
7962;BME280;4026;43.652;24.906;2023-04-25T12:12:51;98168.63;;;19.97;68.75
7962;BME280;4026;43.652;24.906;2023-04-25T12:15:23;98166.16;;;20.37;67.29
7962;BME280;4026;43.652;24.906;2023-04-25T12:17:53;98149.25;;;20.54;64.00
7962;BME280;4026;43.652;24.906;2023-04-25T12:20:23;98152.81;;;20.53;64.45
7962;BME280;4026;43.652;24.906;2023-04-25T12:22:51;98148.66;;;20.72;61.97
7962;BME280;4026;43.652;24.906;2023-04-25T12:25:38;98138.06;;;20.94;67.02
7962;BME280;4026;43.652;24.906;2023-04-25T12:28:12;98142.25;;;20.62;62.26
7962;BME280;4026;43.652;24.906;2023-04-25T12:30:59;98131.47;;;21.18;64.66
7962;BME280;4026;43.652;24.906;2023-04-25T12:33:28;98125.97;;;21.66;61.15
7962;BME280;4026;43.652;24.906;2023-04-25T12:35:56;98125.56;;;21.69;59.57
7962;BME280;4026;43.652;24.906;2023-04-25T12:38:24;98121.00;;;21.51;59.86
7962;BME280;4026;43.652;24.906;2023-04-25T12:40:53;98131.25;;;21.33;57.99
7962;BME280;4026;43.652;24.906;2023-04-25T12:43:20;98120.69;;;20.68;59.47
7962;BME280;4026;43.652;24.906;2023-04-25T12:45:48;98126.78;;;20.13;60.56
7962;BME280;4026;43.652;24.906;2023-04-25T12:48:16;98114.81;;;20.32;63.60
7962;BME280;4026;43.652;24.906;2023-04-25T12:50:43;98119.59;;;20.29;62.86
7962;BME280;4026;43.652;24.906;2023-04-25T12:53:10;98121.97;;;20.17;63.52
7962;BME280;4026;43.652;24.906;2023-04-25T12:55:37;98126.78;;;20.13;64.62
7962;BME280;4026;43.652;24.906;2023-04-25T12:58:06;98128.69;;;19.92;65.53
7962;BME280;4026;43.652;24.906;2023-04-25T13:00:32;98131.00;;;19.66;66.43
7962;BME280;4026;43.652;24.906;2023-04-25T13:02:59;98133.59;;;19.66;68.21
7962;BME280;4026;43.652;24.906;2023-04-25T13:05:26;98161.44;;;19.30;69.15
7962;BME280;4026;43.652;24.906;2023-04-25T13:07:53;98158.69;;;17.87;72.86